MyTimes logo

TIMES

Webb Imagery

7/02/2015
Channel Challenge
550m Swim / 2.0km Run

(Click on competitor name to view personalised results)

Name
Race #
Category
Time
(h:mm:ss)
Avg Speed
km/hr
OAll
Place
Cat
Place
KIBBY Mitchell#138Senior Male0:12:04"12.7 " 11
ASBURY Shane#40Senior Male0:12:53"11.9 " 22
ARMSTRONG Emma#405Senior Female0:13:00"11.8 " 31
ROWE Mark#112Senior Male0:13:02"11.7 " 43
DEVESON Grace#467Senior Female0:13:06"11.7 " 52
BUTT Chloe#457Senior Female0:13:20"11.5 " 63
GUILLE Tim#73Senior Male0:13:23"11.4 " 74
VAN AGTMAAL Beau#109Senior Male0:13:26"11.4 " 85
HIATT Wally#184Senior Male0:13:39"11.2 " 96
WACHTER Aurel#66440-49 Male0:13:39"11.2 " 101
SOMMERVILLE Barny#111Senior Male0:13:46"11.1 " 117
COOPER Jarrod#66Senior Male0:13:55"11.0 " 128
CLARKSON Mack#65140-49 Male0:14:05"10.9 " 132
DISTON Ashlee#462Senior Female0:14:06"10.9 " 144
WILLIAMS Max#614Junior Male0:14:12"10.8 " 151
MCMORROW Thomas#118Senior Male0:14:14"10.7 " 169
BUTTERWORTH Bizzy#31740-49 Female0:14:14"10.7 " 171
GOWAN Mike#196Senior Male0:14:18"10.7 " 1810
HARRISON Hamish#143Senior Male0:14:24"10.6 " 1911
JONES Sean#88Senior Male0:14:29"10.6 " 2012
GERRARD Chelsea#370Junior Female0:14:31"10.5 " 211
DALLINGER Andrew#56Senior Male0:14:36"10.5 " 2213
BIBBY Anthony#63440-49 Male0:14:45"10.4 " 233
JENNER Steven#120Senior Male0:14:46"10.4 " 2414
DISTON Mitchell#623Junior Male0:14:51"10.3 " 252
WILLIAMS Jack#615Junior Male0:14:52"10.3 " 263
FROUDE David#52Senior Male0:14:55"10.3 " 2715
LUMSDEN Kai#606Junior Male0:14:59"10.2 " 284
CORBETT Jim#706Male 50+0:14:59"10.2 " 291
DONALDSON Mark#76640-49 Male0:15:03"10.2 " 304
TILLEY Justin#100Senior Male0:15:10"10.1 " 3116
GALBRAITH Dana#720Male 50+0:15:18"10.0 " 322
MAGANN Jarrod#148Senior Male0:15:19"10.0 " 3317
NICHOLSON Steve#62Senior Male0:15:24"9.9 " 3418
PAYNE Simon#63840-49 Male0:15:28"9.9 " 355
LAINO Vanessa#505Senior Female0:15:29"9.9 " 365
HETEBRUEG Andre#108Senior Male0:15:32"9.8 " 3719
CARTER Lachlan#158Senior Male0:15:34"9.8 " 3820
FLEISNER Rob#714Male 50+0:15:37"9.8 " 393
GROVES Tamara#404Senior Female0:15:39"9.8 " 406
ROLLAND Thierry#68940-49 Male0:15:40"9.8 " 416
GLASBY Camilla#411Senior Female0:15:42"9.7 " 427
STURT Rod#176Senior Male0:15:43"9.7 " 4321
RAINEY Helen#32540-49 Female0:15:44"9.7 " 442
FISHER Surrey#608Junior Male0:15:44"9.7 " 455
ELLIS Chris#159Senior Male0:15:46"9.7 " 4622
MATTHEWS Jack#84Senior Male0:15:48"9.7 " 4723
HOMER Jack#129Senior Male0:15:53"9.6 " 4824
BONDARENKO-EDWA Aleksei#82Senior Male0:15:55"9.6 " 4925
ANDERSON Nicholas#151Senior Male0:15:57"9.6 " 5026
BUXTON Shane#146Senior Male0:15:57"9.6 " 5127
LOWE Alex#609Junior Male0:15:57"9.6 " 526
CANN Lara#380Senior Female0:15:58"9.6 " 538
MC KENZIE Rodney#164Senior Male0:16:01"9.6 " 5428
MONAGHAN Matt#67440-49 Male0:16:01"9.6 " 557
WRAY William#46Senior Male0:16:07"9.5 " 5629
SOMMERVILLE Gael#446Senior Female0:16:08"9.5 " 579
TURNER Georgia#433Senior Female0:16:10"9.5 " 5810
NICHOLSON James#63Senior Male0:16:20"9.4 " 5930
EDWARDS Aaron#771Junior Male0:16:22"9.3 " 607
ROSS Matthew#76Senior Male0:16:23"9.3 " 6131
AMBROSE Fraser#139Senior Male0:16:24"9.3 " 6232
LITTLE Will#778Junior Male0:16:25"9.3 " 638
O'HALLORAN Nick#91Senior Male0:16:26"9.3 " 6433
HURLEY Tristan#75Senior Male0:16:26"9.3 " 6534
TRAINOR Jameson#113Senior Male0:16:27"9.3 " 6635
MURPHY Victor#65340-49 Male0:16:27"9.3 " 678
ANDERS Joel#166Senior Male0:16:28"9.3 " 6836
HUNT Mathew#132Senior Male0:16:30"9.3 " 6937
TURNER Peter#727Male 50+0:16:30"9.3 " 704
PEARCE Heath#147Senior Male0:16:32"9.3 " 7138
BAIN Kristian#134Senior Male0:16:36"9.2 " 7239
MAHON Debbi#464Senior Female0:16:37"9.2 " 7311
THOMAS Luke#115Senior Male0:16:38"9.2 " 7440
ABLETT Zac#198Senior Male0:16:40"9.2 " 7541
ECCLES Edward#172Senior Male0:16:41"9.2 " 7642
ONLEY Thomas#110Senior Male0:16:41"9.2 " 7743
JORDAN Tom#80Senior Male0:16:42"9.2 " 7844
WALLACE Mark#28Senior Male0:16:43"9.2 " 7945
EVANS Brad#79340-49 Male0:16:43"9.2 " 809
ROSS Kyle#751Junior Male0:16:43"9.2 " 819
WEBSTER Corey#780Junior Male0:16:44"9.1 " 8210
MURPHY Gary#31Senior Male0:16:48"9.1 " 8346
MURPHY David#42Senior Male0:16:49"9.1 " 8447
BEHRSIN Brianna#476Junior Female0:16:49"9.1 " 852
BORN Christian#32Senior Male0:16:53"9.1 " 8648
OBRIEN Nathaniel#144Senior Male0:16:54"9.1 " 8749
BRODERICK Emily#375Junior Female0:16:55"9.0 " 883
MAIER David#787Male 50+0:16:55"9.0 " 895
HARBINSON Yvette#415Senior Female0:16:56"9.0 " 9012
COLLINS Todd#157Senior Male0:16:57"9.0 " 9150
BILLINGTON Naomi#50640-49 Female0:16:57"9.0 " 923
BUXTON Corey#192Senior Male0:16:58"9.0 " 9351
SENZ Matt#189Senior Male0:16:58"9.0 " 9452
HERBERT Duncan#67640-49 Male0:16:58"9.0 " 9510
FLEISNER Ben#122Senior Male0:16:59"9.0 " 9653
TYLER Mike#692Male 50+0:17:00"9.0 " 976
FYFIELD Sally#466Senior Female0:17:01"9.0 " 9813
COX Jessica#368Junior Female0:17:02"9.0 " 994
POULTON Andrew#66840-49 Male0:17:02"9.0 " 10011
CLOSE Jason#68240-49 Male0:17:05"9.0 " 10112
DWYER Ryan#170Senior Male0:17:06"8.9 " 10254
FOY Stuart#145Senior Male0:17:06"8.9 " 10355
STINEAR Tim#65740-49 Male0:17:06"8.9 " 10413
WEBBER Chris#197Senior Male0:17:11"8.9 " 10556
LEA Michael#105Senior Male0:17:12"8.9 " 10657
JUST Paul#77940-49 Male0:17:12"8.9 " 10714
TURECEK Julian#67140-49 Male0:17:13"8.9 " 10815
TILLEY Derryn#173Senior Male0:17:14"8.9 " 10958
PAPROTH Dale#66040-49 Male0:17:14"8.9 " 11016
CLOUGH Kane#178Senior Male0:17:15"8.9 " 11159
BEHRSIN John#746Male 50+0:17:16"8.9 " 1127
GYLES Hugh#114Senior Male0:17:17"8.9 " 11360
BUTTERWORTH Jay#661Junior Male0:17:17"8.9 " 11411
NGUYEN Paige#367Junior Female0:17:18"8.8 " 1155
HOMER Ivan#735Male 50+0:17:20"8.8 " 1168
TWEDDLE Damian#142Senior Male0:17:21"8.8 " 11761
DEMKO Marcus#64340-49 Male0:17:21"8.8 " 11817
BARRY Bill#39Senior Male0:17:23"8.8 " 11962
WATSON Russell#68140-49 Male0:17:23"8.8 " 12018
NORRIS Dale#193Senior Male0:17:27"8.8 " 12163
YUSKO Bill#728Male 50+0:17:29"8.8 " 1229
JONES Mark#65940-49 Male0:17:33"8.7 " 12319
HEWTON Brad#195Senior Male0:17:34"8.7 " 12464
THWAITES Karl#694Male 50+0:17:34"8.7 " 12510
WRAY Harriet#398Senior Female0:17:35"8.7 " 12614
MOSELEY Tessa#391Senior Female0:17:37"8.7 " 12715
JORDAN Eliza#420Senior Female0:17:38"8.7 " 12816
PARSONS Nigel#68640-49 Male0:17:38"8.7 " 12920
HARRIS Kris#67940-49 Male0:17:38"8.7 " 13021
FELSTEAD Anthony#125Senior Male0:17:39"8.7 " 13165
MINTER Kris#102Senior Male0:17:40"8.7 " 13266
DESSENT Tiger#65040-49 Male0:17:45"8.6 " 13322
NEWSTEAD Laura#435Senior Female0:17:46"8.6 " 13417
HOLMES Scott#133Senior Male0:17:47"8.6 " 13567
CRAWFORD Justin#67540-49 Male0:17:47"8.6 " 13623
LUNN Daniel#187Senior Male0:17:51"8.6 " 13768
PIERA Joel#772Junior Male0:17:52"8.6 " 13812
STACEY David#79Senior Male0:17:53"8.6 " 13969
CHISHOLM Andy#68540-49 Male0:17:53"8.6 " 14024
O'DONOHUE Mark#730Male 50+0:17:53"8.6 " 14111
DAFF Geoff#777Male 50+0:17:54"8.5 " 14212
CALLAHAN Mark#85Senior Male0:17:55"8.5 " 14370
THERIAULT David#712Male 50+0:17:55"8.5 " 14413
REID Cooper#610Junior Male0:17:57"8.5 " 14513
WILLS Darren#65540-49 Male0:17:57"8.5 " 14625
NEATE Antony#68740-49 Male0:17:57"8.5 " 14726
THOMAS Jeremy#150Senior Male0:17:58"8.5 " 14871
FINNIS Matt#78340-49 Male0:17:58"8.5 " 14927
FISHER Kevin#718Male 50+0:17:59"8.5 " 15014
PAYNE Luke#149Senior Male0:18:00"8.5 " 15172
BEISCHER Caroline#51340-49 Female0:18:00"8.5 " 1524
JONES Joel#71Senior Male0:18:01"8.5 " 15373
LENNE Heath#26Senior Male0:18:02"8.5 " 15474
MILLS Cindy#424Senior Female0:18:05"8.5 " 15518
LOWE Marcus#191Senior Male0:18:07"8.4 " 15675
BROWN Sean#79840-49 Male0:18:07"8.4 " 15728
SEE EVENT Director#474Senior Female0:18:09"8.4 " 15819
FARRELL Barry#131Senior Male0:18:11"8.4 " 15976
OLSEN Andrea#50340-49 Female0:18:12"8.4 " 1605
HUMPHRY Kirk#67340-49 Male0:18:13"8.4 " 16129
VORRATH Kester#75840-49 Male0:18:13"8.4 " 16230
HENDY Thomas#795Junior Male0:18:14"8.4 " 16314
PIKE Campbell#616Junior Male0:18:14"8.4 " 16415
GARDNER Liz#337Female 50+0:18:15"8.4 " 1651
GIBSON Donna#30840-49 Female0:18:18"8.4 " 1666
ELLIS Steve#54Senior Male0:18:19"8.4 " 16777
JOHNSON Samuel#97Senior Male0:18:20"8.3 " 16878
LIDDELL Maryanne#396Senior Female0:18:22"8.3 " 16920
MUSGRAVE Nick#76840-49 Male0:18:23"8.3 " 17031
THOMAS Brodie#48Senior Male0:18:24"8.3 " 17179
SMART Robert#106Senior Male0:18:25"8.3 " 17280
DODDS Mitch#613Junior Male0:18:29"8.3 " 17316
DODDS Janine#32040-49 Female0:18:32"8.3 " 1747
DE CARLO Jasmine#393Senior Female0:18:33"8.2 " 17521
FRASER Jodie#463Senior Female0:18:34"8.2 " 17622
CARSON Sarah#473Senior Female0:18:38"8.2 " 17723
HADAWAY Emma#422Senior Female0:18:38"8.2 " 17824
DUNCAN Hamish#620Junior Male0:18:41"8.2 " 17917
WHITLA Jim#67840-49 Male0:18:41"8.2 " 18032
WINSTANLEY James#59Senior Male0:18:42"8.2 " 18181
NEAL Daniel#93Senior Male0:18:42"8.2 " 18282
WILLIAMS Ian#729Male 50+0:18:43"8.2 " 18315
STEPHENS Janice#338Female 50+0:18:44"8.2 " 1842
LANGFORD Imigen#377Junior Female0:18:45"8.2 " 1856
DALLINGER Chris#83Senior Male0:18:48"8.1 " 18683
MURTY Georgia#472Senior Female0:18:48"8.1 " 18725
ROWE Joel#29Senior Male0:18:49"8.1 " 18884
HUGHES Olivia#372Junior Female0:18:51"8.1 " 1897
BOYD Paul#64040-49 Male0:18:54"8.1 " 19033
CURTIS Yarran#153Senior Male0:18:56"8.1 " 19185
GALBRAITH Lynne#352Female 50+0:18:56"8.1 " 1923
YOUNG Scott#50Senior Male0:18:57"8.1 " 19386
PHILALAY Alex#86Senior Male0:18:57"8.1 " 19487
MARSHALL Luke#123Senior Male0:18:58"8.1 " 19588
WILSON Josh#47Senior Male0:18:58"8.1 " 19689
CAMERON Jane#361Female 50+0:18:58"8.1 " 1974
SUTHERLAND Bailey#764Junior Male0:18:58"8.1 " 19818
COLLETT Ollie#612Junior Male0:18:58"8.1 " 19919
JENKINS Steven#92Senior Male0:19:00"8.1 " 20090
VINCENT Ned#171Senior Male0:19:00"8.1 " 20191
DARKER Sarah#454Senior Female0:19:00"8.1 " 20226
DISTON Mort#741Male 50+0:19:00"8.1 " 20316
BROOKE Jason#34Senior Male0:19:01"8.0 " 20492
TZIMOKAS Alexander#603Junior Male0:19:02"8.0 " 20520
STUBBLES Marcus#65840-49 Male0:19:03"8.0 " 20634
HENDY Dale#64440-49 Male0:19:03"8.0 " 20735
STEVIC Corbin#127Senior Male0:19:04"8.0 " 20893
SUNDERLAND Greg#75640-49 Male0:19:04"8.0 " 20936
COLLINS Julian#67740-49 Male0:19:04"8.0 " 21037
CROOKS Matt#78940-49 Male0:19:09"8.0 " 21138
JONES Zach#89Senior Male0:19:11"8.0 " 21294
DODD Jennifer#351Female 50+0:19:13"8.0 " 2135
LAMB Simon#190Senior Male0:19:15"7.9 " 21495
POULTON Melissa#373Junior Female0:19:15"7.9 " 2158
WATERSON David#169Senior Male0:19:17"7.9 " 21696
WATTS Justin#68040-49 Male0:19:18"7.9 " 21739
HILL Jacob#45Senior Male0:19:19"7.9 " 21897
TAYLOR Jack#770Junior Male0:19:20"7.9 " 21921
EMERY Mick#690Male 50+0:19:23"7.9 " 22017
WATSON Angus#124Senior Male0:19:24"7.9 " 22198
PENDLEBURY Brett#163Senior Male0:19:27"7.9 " 22299
VAN OOSTEN Yolande#31540-49 Female0:19:30"7.8 " 2238
LEA Trevor#698Male 50+0:19:31"7.8 " 22418
KAY Elizabeth#456Senior Female0:19:32"7.8 " 22527
THOMPSON Jorgie Mae#376Junior Female0:19:33"7.8 " 2269
TRANTER Andrew#155Senior Male0:19:34"7.8 " 227100
MOORE Emma#32940-49 Female0:19:34"7.8 " 2289
KING Nathan#66340-49 Male0:19:34"7.8 " 22940
TEMPLAR Natalie#442Senior Female0:19:35"7.8 " 23028
JOHNSTONE Chris#75540-49 Male0:19:37"7.8 " 23141
BROOKE Andrew#135Senior Male0:19:38"7.8 " 232101
O'CONNELL Arna#33040-49 Female0:19:38"7.8 " 23310
WETZLER David#64540-49 Male0:19:39"7.8 " 23442
MCAULIFFE David#53Senior Male0:19:41"7.8 " 235102
STEWART Alastair#174Senior Male0:19:41"7.8 " 236103
HIBBLE Jenny#332Female 50+0:19:41"7.8 " 2376
FORREST Gregory#44Senior Male0:19:42"7.8 " 238104
ANTHONY Michael#64140-49 Male0:19:43"7.8 " 23943
SAUNDERS Allan#732Male 50+0:19:45"7.7 " 24019
SUTHERLAND Michael#76540-49 Male0:19:47"7.7 " 24144
ANTHONY Max#41Senior Male0:19:48"7.7 " 242105
WILLIAMS Tommy#601Junior Male0:19:49"7.7 " 24322
HALL Adriaan#165Senior Male0:19:50"7.7 " 244106
SNELL Ronald#605Junior Male0:19:50"7.7 " 24523
MCDONALD Kellie#444Senior Female0:19:54"7.7 " 24629
COSTELLO Rachel#30540-49 Female0:19:54"7.7 " 24711
CURTIS Brad#776Male 50+0:19:54"7.7 " 24820
BAIRD Andrew#79640-49 Male0:19:54"7.7 " 24945
FENWICK Ryan#117Senior Male0:19:55"7.7 " 250107
ATTANASIO Simone#94Senior Male0:19:55"7.7 " 251108
HAYNE Rodney#43Senior Male0:19:58"7.7 " 252109
ALLEN-RYAN Zakk#752Junior Male0:19:58"7.7 " 25324
SHEEHAN Jason#177Senior Male0:20:00"7.6 " 254110
RAMSAY Leigh#182Senior Male0:20:00"7.6 " 255111
TAYLOR Chris#66940-49 Male0:20:00"7.6 " 25646
SCICLUNA Todd#55Senior Male0:20:01"7.6 " 257112
MOUNTJOY Libby#387Senior Female0:20:01"7.6 " 25830
JACKSON Lucy#468Senior Female0:20:01"7.6 " 25931
LAW Sonya#30440-49 Female0:20:02"7.6 " 26012
O'CALLAGHAN James#58Senior Male0:20:03"7.6 " 261113
PEZZIMENTI Peter#90Senior Male0:20:03"7.6 " 262114
DAVIES Natalie#460Senior Female0:20:04"7.6 " 26332
MATHESON Phil#194Senior Male0:20:05"7.6 " 264115
GOOEY Megan#440Senior Female0:20:06"7.6 " 26533
MURPHY Michelle#51540-49 Female0:20:07"7.6 " 26613
RUTLEY Aaron#61Senior Male0:20:08"7.6 " 267116
JOHNSON Travis#79740-49 Male0:20:10"7.6 " 26847
BORN Daniel#33Senior Male0:20:12"7.6 " 269117
FERMANIAN Michael#130Senior Male0:20:12"7.6 " 270118
LUCK Jarrod#66240-49 Male0:20:12"7.6 " 27148
SEE EVENT Director#60440-49 Male0:20:13"7.6 " 27249
STANTON Jordan#60Senior Male0:20:14"7.6 " 273119
SCHMIDT David#168Senior Male0:20:16"7.5 " 274120
BUTTIFANT David#794Male 50+0:20:18"7.5 " 27521
MAY Richard#78240-49 Male0:20:20"7.5 " 27650
BECK Aimee#461Senior Female0:20:21"7.5 " 27734
BEHRE Michaela#408Senior Female0:20:22"7.5 " 27835
WEBBER Neil#733Male 50+0:20:23"7.5 " 27922
CICCONE Joseph#126Senior Male0:20:26"7.5 " 280121
BROPHY Clare#333Female 50+0:20:28"7.5 " 2817
HOGAN Krystal#509Senior Female0:20:28"7.5 " 28236
MUSSON Anthony#66740-49 Male0:20:31"7.5 " 28351
HYND Jordan#781Junior Male0:20:32"7.5 " 28425
HARRIS Kirsty#455Senior Female0:20:33"7.4 " 28537
CREAN Peter#722Male 50+0:20:33"7.4 " 28623
PAYNTER Brian#65640-49 Male0:20:34"7.4 " 28752
MARSHALL Sarah#30940-49 Female0:20:36"7.4 " 28814
WILLIS Andrew#785Male 50+0:20:36"7.4 " 28924
CAMILLE Daven#103Senior Male0:20:38"7.4 " 290122
HEFFER Kelly#431Senior Female0:20:38"7.4 " 29138
BARO John#67Senior Male0:20:39"7.4 " 292123
BUTLER Luke#96Senior Male0:20:41"7.4 " 293124
HONEY Phoebe#406Senior Female0:20:43"7.4 " 29439
PAYNE Jacqui#478Senior Female0:20:44"7.4 " 29540
HARTLEY Chris#64840-49 Male0:20:46"7.4 " 29653
PHAN Tuong#121Senior Male0:20:53"7.3 " 297125
BREWIN Hayley#470Senior Female0:20:53"7.3 " 29841
JONSTON Mathew#67040-49 Male0:20:53"7.3 " 29954
BOLGER Andrew#78Senior Male0:20:54"7.3 " 300126
WARE Matthew#66540-49 Male0:20:54"7.3 " 30155
LEVERSHA Lyn#350Female 50+0:20:57"7.3 " 3028
HOUSTON Mitchell#81Senior Male0:20:58"7.3 " 303127
LIUBINAS David#87Senior Male0:20:59"7.3 " 304128
VELLIN Shelley#413Senior Female0:20:59"7.3 " 30542
SCOTT Louise#383Senior Female0:21:00"7.3 " 30643
COLE Nicholas#75340-49 Male0:21:02"7.3 " 30756
DEVINE Allison#347Female 50+0:21:04"7.3 " 3089
POWELL Ebony#449Senior Female0:21:08"7.2 " 30944
MOORE Emma#400Senior Female0:21:08"7.2 " 31045
ADNAM Sian#357Female 50+0:21:09"7.2 " 31110
FISHER Callum#622Junior Male0:21:09"7.2 " 31226
O'SHANNESSY Peter#775Male 50+0:21:09"7.2 " 31325
LOWE Andrew#719Male 50+0:21:11"7.2 " 31426
DAKIN Andrew#66640-49 Male0:21:11"7.2 " 31557
TENNANT Michelle#423Senior Female0:21:12"7.2 " 31646
TRANTER Bridget#487Senior Female0:21:13"7.2 " 31747
BUCHANAN Kathryn#427Senior Female0:21:16"7.2 " 31848
DAFF Jessica#499Senior Female0:21:20"7.2 " 31949
LEVERSHA David#717Male 50+0:21:22"7.2 " 32027
CROOKS Kirsty#31440-49 Female0:21:23"7.2 " 32115
MATTHEWS Robert#724Male 50+0:21:23"7.2 " 32228
LINDSAY Heather#31840-49 Female0:21:25"7.1 " 32316
HUNT MP Greg#63140-49 Male0:21:25"7.1 " 32458
WILIAMS Taylah#489Junior Female0:21:26"7.1 " 32510
BRACHER Stephen#79240-49 Male0:21:28"7.1 " 32659
HOMER Finn#619Junior Male0:21:29"7.1 " 32727
SEE EVENT Director#359Senior Female0:21:30"7.1 " 32850
WRIGHT Anne#32740-49 Female0:21:32"7.1 " 32917
FLEISNER Paul#709Male 50+0:21:33"7.1 " 33029
STELZER Hermann#726Male 50+0:21:33"7.1 " 33130
ZIMMERMAN Kirrily#452Senior Female0:21:35"7.1 " 33251
BORN Tim#704Male 50+0:21:37"7.1 " 33331
FERGUSON Heather#31040-49 Female0:21:40"7.1 " 33418
MERRICK Jenny#342Female 50+0:21:41"7.1 " 33511
ROSA Hannah#418Senior Female0:21:42"7.1 " 33652
WEBBER Simone#512Female 50+0:21:43"7.0 " 33712
KELLY Rohan#137Senior Male0:21:45"7.0 " 338129
BILTON-GOUGH Shea#495Senior Female0:21:46"7.0 " 33953
GROELLIN Audrey#494Senior Female0:21:49"7.0 " 34054
MALIOS Todd#68440-49 Male0:21:54"7.0 " 34160
BUCHAN Nathan#68Senior Male0:21:55"7.0 " 342130
BALDWIN Liz#471Senior Female0:21:56"7.0 " 34355
TYRRELL Sarah#429Senior Female0:22:07"6.9 " 34456
FORD David#64640-49 Male0:22:07"6.9 " 34561
BROPHY David#696Male 50+0:22:09"6.9 " 34632
LIDDELL Adam#95Senior Male0:22:10"6.9 " 347131
BEAUMONT Ashley#77340-49 Male0:22:10"6.9 " 34862
DYNON Paul#63040-49 Male0:22:14"6.9 " 34963
HOLLINS Jenny#30340-49 Female0:22:16"6.9 " 35019
VANDERSTAAY Colin#76040-49 Male0:22:16"6.9 " 35164
HOOK Diane#458Senior Female0:22:22"6.8 " 35257
BAIN Mark#65240-49 Male0:22:23"6.8 " 35365
TZIMOKAS Hannah#397Senior Female0:22:24"6.8 " 35458
LERK Nadia#32840-49 Female0:22:26"6.8 " 35520
SHEPPARD Sam#183Senior Male0:22:27"6.8 " 356132
VAN DER HEYDEN Natalie#437Senior Female0:22:28"6.8 " 35759
ANDERSON Lisa#343Female 50+0:22:29"6.8 " 35813
WALSH John#140Senior Male0:22:30"6.8 " 359133
WILLIAMS Richard#710Male 50+0:22:33"6.8 " 36033
MEAGHER Kerryn#439Senior Female0:22:36"6.8 " 36160
O'HEHR Thomas#162Senior Male0:22:37"6.8 " 362134
MARLBOROUGH Kirra#510Senior Female0:22:38"6.8 " 36361
LUKER Ben#161Senior Male0:22:40"6.7 " 364135
MCNEIL Lori#469Senior Female0:22:43"6.7 " 36562
KUBALE Alex#30Senior Male0:22:44"6.7 " 366136
WILLIAMS Peter#76140-49 Male0:22:45"6.7 " 36766
GOOEY Janette#349Female 50+0:22:46"6.7 " 36814
DICKIE Bonny#508Junior Female0:22:49"6.7 " 36911
SYME Michael#703Male 50+0:22:49"6.7 " 37034
BATES James#188Senior Male0:22:52"6.7 " 371137
UPTON Paul#68340-49 Male0:22:52"6.7 " 37267
PAYNE Tim#626Junior Male0:22:55"6.7 " 37328
CUMMINGS Alec#160Senior Male0:22:57"6.7 " 374138
JONES Pui-Shan#30740-49 Female0:22:58"6.7 " 37521
ABRFEHARE Gary#784Male 50+0:23:00"6.7 " 37635
BUCHANAN Daniel#128Senior Male0:23:01"6.6 " 377139
PICKLES Ali#407Senior Female0:23:01"6.6 " 37863
WATSON Simon#76740-49 Male0:23:04"6.6 " 37968
NEWMAN Nadine#32440-49 Female0:23:06"6.6 " 38022
BAXTER Virginia#49040-49 Female0:23:07"6.6 " 38123
COLENSO Meady#486Senior Female0:23:07"6.6 " 38264
OHASTON Pete#759Male 50+0:23:15"6.6 " 38336
CICCONE Daniel#167Senior Male0:23:16"6.6 " 384140
WRIGHT Phil#725Male 50+0:23:16"6.6 " 38537
SCROGGIE Katie#419Senior Female0:23:17"6.6 " 38665
MC FEE Patricia#355Female 50+0:23:17"6.6 " 38715
WILLIS Eddy#498Female 50+0:23:18"6.6 " 38816
ADAMS Murray#723Male 50+0:23:21"6.6 " 38938
POWELL Hayden#618Junior Male0:23:21"6.6 " 39029
JOHNSTONE Felicity#49340-49 Female0:23:22"6.5 " 39124
BUICK Megan#48340-49 Female0:23:22"6.5 " 39225
CLARKE Anna#417Senior Female0:23:31"6.5 " 39366
TOSCANO Nick#101Senior Male0:23:33"6.5 " 394141
ABLETHORPE Matt#156Senior Male0:23:34"6.5 " 395142
WILSON Jo#425Senior Female0:23:35"6.5 " 39667
WATSON Tessa#496Junior Female0:23:36"6.5 " 39712
NICHOLSON Garry#708Male 50+0:23:36"6.5 " 39839
BONDARENKO-EDWA Russel#740Male 50+0:23:36"6.5 " 39940
WRIGHT Melanie#447Senior Female0:23:38"6.5 " 40068
PERCOCO Loui#75040-49 Male0:23:46"6.4 " 40169
CAPLE Anna#443Senior Female0:23:47"6.4 " 40269
SCOTT David#63340-49 Male0:23:53"6.4 " 40370
SPIELTHENNER Doris#448Senior Female0:23:55"6.4 " 40470
TOOHEY Lyn#354Female 50+0:23:59"6.4 " 40517
PAYNE Kevin#744Male 50+0:24:00"6.4 " 40641
TAYLOR Cheryl#507Female 50+0:24:04"6.4 " 40718
GREEN Amanda#392Senior Female0:24:05"6.4 " 40871
HENDY Lee#31140-49 Female0:24:07"6.3 " 40926
WATSON Richard#731Male 50+0:24:09"6.3 " 41042
CARTER Verena#481Senior Female0:24:11"6.3 " 41172
LINOSSI Alex#693Male 50+0:24:12"6.3 " 41243
HOSKIN Katelin#436Senior Female0:24:14"6.3 " 41373
ABREHART Jackie#344Female 50+0:24:14"6.3 " 41419
HERINGTON Suzie#47740-49 Female0:24:15"6.3 " 41527
MULLER Rodney#57Senior Male0:24:17"6.3 " 416143
MOWLAM Fleur#389Senior Female0:24:19"6.3 " 41774
SNELL Justin#98Senior Male0:24:20"6.3 " 418144
LLOYD Greg#62740-49 Male0:24:23"6.3 " 41971
WERRETT Marie#358Female 50+0:24:24"6.3 " 42020
GIBBS Brett#63640-49 Male0:24:24"6.3 " 42172
SINGH Natalie#414Senior Female0:24:26"6.3 " 42275
FURNISS Simon#64940-49 Male0:24:26"6.3 " 42373
LAW Nicholas#621Junior Male0:24:27"6.3 " 42430
GUNNINGHAM Blake#69Senior Male0:24:31"6.2 " 425145
GUNNINGHAM Heath#70Senior Male0:24:31"6.2 " 426146
CAIN Greg#743Male 50+0:24:32"6.2 " 42744
ASHWORTH Scott#152Senior Male0:24:33"6.2 " 428147
VAN DER WEERD Melina#482Senior Female0:24:35"6.2 " 42976
MUIR Tony#786Male 50+0:24:40"6.2 " 43045
PEZZIMENTI Fred#702Male 50+0:24:41"6.2 " 43146
GREENWOOD Meg#514Junior Female0:24:42"6.2 " 43213
MOODY Celine#371Junior Female0:24:42"6.2 " 43314
BARCLAY Donna#31940-49 Female0:24:46"6.2 " 43428
PERRY Phillip#64Senior Male0:24:53"6.1 " 435148
COUSINS Richard#695Male 50+0:24:54"6.1 " 43647
DALLINGER Brian#747Male 50+0:24:57"6.1 " 43748
LAW Matthew#67240-49 Male0:24:59"6.1 " 43874
CHANDLER Mark#754Senior Male0:25:07"6.1 " 439149
BONDARENKO Troy#78840-49 Male0:25:11"6.1 " 44075
BLACKMAN Julie#453Senior Female0:25:16"6.1 " 44177
ARMSTRONG Steven#739Male 50+0:25:16"6.1 " 44249
LEA Edwina#385Senior Female0:25:20"6.0 " 44378
GARDNER Megan#378Senior Female0:25:20"6.0 " 44479
SYMES Stephanie#501Senior Female0:25:21"6.0 " 44580
PEDDLE Graeme#64740-49 Male0:25:21"6.0 " 44676
CURRIE Brendan#721Male 50+0:25:21"6.0 " 44750
WATSON Arabella#492Junior Female0:25:24"6.0 " 44815
BELEUI-HAYES Ariel#762Junior Male0:25:26"6.0 " 44931
SNELL Chelsea#366Junior Female0:25:33"6.0 " 45016
WEST Samantha#441Senior Female0:25:33"6.0 " 45181
UPTON Sara#32640-49 Female0:25:48"5.9 " 45229
DRENNAN Amanda#426Senior Female0:25:49"5.9 " 45382
KEWMING Robyn#365Female 50+0:25:49"5.9 " 45421
RILEY Karen#30640-49 Female0:26:01"5.9 " 45530
POTTS Lisa#412Senior Female0:26:02"5.9 " 45683
VIRTUE Melinda#47940-49 Female0:26:02"5.9 " 45731
KUBALE Tim#63940-49 Male0:26:02"5.9 " 45877
CRUGNALE Jordan#32140-49 Female0:26:12"5.8 " 45932
O'CONNELL Katherine#31340-49 Female0:26:13"5.8 " 46033
MC GENNISKEN Kerry#32240-49 Female0:26:18"5.8 " 46134
NGUYEN Aleysha#430Senior Female0:26:19"5.8 " 46284
PATON Wendy#340Female 50+0:26:30"5.8 " 46322
TRESISE Rod#757Male 50+0:26:46"5.7 " 46451
SEARLE Kendall#32340-49 Female0:26:47"5.7 " 46535
JORDAN Jessica#491Senior Female0:26:54"5.7 " 46685
HAYES Frank#763Male 50+0:26:54"5.7 " 46752
MURPHY Sean#711Male 50+0:27:03"5.7 " 46853
ASIBETT Emily#497Senior Female0:27:12"5.6 " 46986
CROKER Sally#31240-49 Female0:27:21"5.6 " 47036
LANGDON Mark#691Male 50+0:27:29"5.6 " 47154
TENNANT Helen#353Female 50+0:27:37"5.5 " 47223
LANGDON Zoe#379Senior Female0:27:42"5.5 " 47387
NEAL Susan#345Female 50+0:27:44"5.5 " 47424
BOURKE Gay#346Female 50+0:27:50"5.5 " 47525
HOSKING Robert#790Male 50+0:28:04"5.5 " 47655
BOWERING Helen#360Female 50+0:28:09"5.4 " 47726
BONDARENKO-EDWA Angeline#362Female 50+0:28:12"5.4 " 47827
SZADURA Alec#74940-49 Male0:28:51"5.3 " 47978
DAFF Jan#500Female 50+0:29:07"5.3 " 48028
WILLIAMS Robert#713Male 50+0:29:09"5.2 " 48156
FORBES Kelly#401Senior Female0:29:14"5.2 " 48288
POWELL Cameron#617Junior Male0:29:15"5.2 " 48332
CHAMBERS Ron#697Male 50+0:29:19"5.2 " 48457
ABLETHORPE Niky#488Senior Female0:29:35"5.2 " 48589
BROWN Glenn#36Senior Male0:29:47"5.1 " 486150
TUDOR Cal#356Female 50+0:29:47"5.1 " 48729
HAYNE Sue#339Female 50+0:30:01"5.1 " 48830
KENNEDY Elisa#428Senior Female0:30:21"5.0 " 48990
JONES Vic#331Female 50+0:30:23"5.0 " 49031
BUICK Brigid#48440-49 Female0:30:26"5.0 " 49137
BARKER Kerry#48540-49 Female0:30:27"5.0 " 49238
HORROCKS Mark#769Male 50+0:31:26"4.9 " 49358
GOODE Tom#716Male 50+0:31:28"4.9 " 49459
KUBALE Corey#602Junior Male0:31:31"4.9 " 49533
PATERSON Debra#390Senior Female0:31:32"4.9 " 49691
COLEMAN Paul#734Male 50+0:31:34"4.8 " 49760
SEWELL Jill#335Female 50+0:31:48"4.8 " 49832
REEK George#745Male 50+0:32:19"4.7 " 49961
WALSH Neil#774Male 50+0:33:17"4.6 " 50062
STAINTHORPE Sophie#465Senior Female0:33:35"4.6 " 50192
ALLAN Sarah#395Senior Female0:33:54"4.5 " 50293
VINCENT Karen#504Female 50+0:33:58"4.5 " 50333
NORRIS Sue#364Female 50+0:34:23"4.4 " 50434
TAULIEN Astrid#348Female 50+0:34:27"4.4 " 50535
ORWIN Mike The M#736Male 50+0:35:12"4.3 " 50663
BOND Vivienne#363Female 50+0:36:52"4.2 " 50736
DOOLAN Kate#381Senior Female0:44:29"3.4 " 50894
KONTOGOURIS Earlene#502Female 50+0:46:14 3.3 50937